Crooked Creek Research Lab Weather observations

Data are for 10 minute period ending at time listed.
 Day   Time    Ave.   Ave.  Ave.  Vector   Max.   Stn.    Total    Solar   Ave.   Snow 
  of    of     Air    Rel.  Wind   Wind    Wind   Baro.  Precip.   Rad.    Soil   Depth
Year   Day     Temp.  Hum.  Speed  Dir.    Gust   Pres.                    Temp.       
2015   (PST)    F      %     mph   deg.    mph     mb.     in.     W/m2     F      in. 
---------------------------------------------------------------------------------------  
 210    0:10   42.2    44    0.9   118      2.9   708.4    0.00       0    999.0    -0.6
 210    0:20   41.4    46    0.8   115      2.1   708.3    0.00       0    999.0    -0.7
 210    0:30   40.7    48    1.0   141      3.0   708.3    0.00       0    999.0    -0.6
 210    0:40   40.4    48    0.3    97      1.7   708.3    0.00       0    999.0    -0.6
 210    0:50   40.0    48    0.3    99      1.7   708.3    0.00       0    999.0    -0.6
 210    1:00   39.5    49    0.4   157      1.9   708.1    0.00       0    999.0    -0.6
 210    1:10   39.1    49    0.2   150      1.8   708.2    0.00       0    999.0    -0.6
 210    1:20   38.8    49    0.8   126      2.2   708.2    0.00       0    999.0    -0.5
 210    1:30   38.8    48    1.4   123      2.8   708.1    0.00       0    999.0    -0.6
 210    1:40   38.5    50    0.9   113      2.6   708.2    0.00       0    999.0    -0.6
 210    1:50   38.0    51    0.2   112      1.5   708.2    0.00       0    999.0    -0.6
 210    2:00   37.4    52    0.4   123      1.7   708.0    0.00       0    999.0    -0.5
 210    2:10   37.5    51    0.3   134      1.0   708.0    0.00       0    999.0    -0.5
 210    2:20   37.6    52    0.5   129      2.3   708.1    0.00       0    999.0    -0.6
 210    2:30   37.7    51    1.1   168      3.2   708.0    0.00       0    999.0    -0.6
 210    2:40   37.6    51    0.1   242      0.9   708.0    0.00       0    999.0    -0.5
 210    2:50   37.3    51    0.6   162      2.6   708.2    0.00       0    999.0    -0.5
 210    3:00   37.1    53    0.2   185      1.2   708.2    0.00       0    999.0    -0.5
 210    3:10   36.7    51    1.7   123      3.0   708.2    0.00       0    999.0    -0.5
 210    3:20   36.5    52    0.1   121      1.5   708.2    0.00       0    999.0    -0.5
 210    3:30   36.3    54    0.3   121      1.2   708.2    0.00       0    999.0    -0.4
 210    3:40   36.1    54    0.2   122      1.5   708.1    0.00       0    999.0    -0.6
 210    3:50   36.0    54    0.2   126      1.2   708.2    0.00       0    999.0    -0.4
 210    4:00   36.3    53    0.8   122      2.9   708.2    0.00       0    999.0    -0.5
 210    4:10   36.3    53    0.2   119      1.8   708.2    0.00       0    999.0    -0.5
 210    4:20   36.3    52    0.6   119      2.4   708.2    0.00       0    999.0    -0.5
 210    4:30   36.3    53    0.8   118      2.3   708.4    0.00       0    999.0    -0.5
 210    4:40   36.2    53    0.4   117      1.8   708.4    0.00       0    999.0    -0.5
 210    4:50   35.9    53    0.9   117      2.2   708.4    0.00       1    999.0    -0.6
 210    5:00   35.7    54    0.1   117      1.0   708.4    0.00       4    999.0    -0.5
 210    5:10   35.5    55    0.7   117      1.7   708.4    0.00       7    999.0    -0.5
 210    5:20   35.8    54    1.8   118      2.8   708.6    0.00       9    999.0    -0.5
 210    5:30   36.1    54    1.9   123      2.9   708.6    0.00      12    999.0    -0.6
 210    5:40   36.6    54    0.2   238      2.0   708.6    0.00      13    999.0    -0.5
 210    5:50   37.2    54    0.0     0      0.0   708.8    0.00      15    999.0    -0.5
 210    6:00   37.9    54    0.7   139      3.2   708.7    0.00      16    999.0    -0.5
 210    6:10   38.5    55    0.8   137      2.5   708.8    0.00      17    999.0    -0.5
 210    6:20   40.9    52    2.4   136      2.8   708.9    0.00      19    999.0    -0.7
 210    6:30   42.6    49    2.8   129      3.3   708.9    0.00      20    999.0    -0.6
 210    6:40   43.8    46    3.0   123      3.5   708.9    0.00     124    999.0    -0.7
 210    6:50   46.8    40    3.1   118      3.6   709.0    0.00     325    999.0    -0.7
 210    7:00   49.7    38    2.5   119      3.1   709.1    0.00     359    999.0    -0.7
 210    7:10   53.0    35    1.7   118      2.4   709.1    0.00     392    999.0    -0.8
 210    7:20   56.5    30    1.3   116      2.4   709.2    0.00     426    999.0    -0.7
 210    7:30   59.1    24    1.9    82      5.0   709.4    0.00     458    999.0    -0.8
 210    7:40   60.4    22    2.4    97      7.7   709.5    0.00     490    999.0    -0.9
 210    7:50   60.1    22    2.4   163      5.8   709.5    0.00     521    999.0    -0.9
 210    8:00   60.4    22    3.1   119      7.7   709.6    0.00     553    999.0    -0.8
 210    8:10   60.5    22    3.2   120      8.1   709.6    0.00     583    999.0    -0.8
 210    8:20   60.6    23    3.4   185      7.8   709.7    0.00     611    999.0    -0.7
 210    8:30   61.4    23    2.5   138      8.2   709.7    0.00     641    999.0    -0.7
 210    8:40   60.8    22    4.4   123      9.3   709.8    0.00     669    999.0    -0.8
 210    8:50   61.1    22    3.0   152      7.0   709.8    0.00     695    999.0    -0.8
 210    9:00   61.4    22    3.4   132     10.6   709.8    0.00     721    999.0    -0.7
 210    9:10   61.8    22    3.8   139     10.4   709.9    0.00     746    999.0    -0.8
 210    9:20   61.1    22    4.5   125      8.7   709.9    0.00     770    999.0    -0.8
 210    9:30   61.4    21    4.4   124     12.5   709.9    0.00     792    999.0    -0.7
 210    9:40   62.0    21    4.8   142     10.4   710.0    0.00     812    999.0    -0.7
 210    9:50   62.0    20    4.2   119     12.6   710.2    0.00     832    999.0    -0.7
 210   10:00   61.9    20    6.2   141     16.6   710.0    0.00     850    999.0    -0.6
 210   10:10   62.0    20    6.8   138     18.5   710.2    0.00     867    999.0    -0.5
 210   10:20   62.4    20    4.5   127     12.6   710.3    0.00     882    999.0    -0.7
 210   10:30   63.0    20    4.5   129     12.6   710.2    0.00     897    999.0    -0.6
 210   10:40   63.3    18    5.0   126     12.9   710.3    0.00     911    999.0    -0.7
 210   10:50   63.6    18    3.5   175     10.6   710.3    0.00     922    999.0    -0.7
 210   11:00   63.0    19    6.1   135     12.1   710.2    0.00     930    999.0    -0.7
 210   11:10   63.0    19    5.4   137     11.5   710.2    0.00     938    999.0    -0.6
 210   11:20   63.4    19    4.9   132     11.5   710.3    0.00     944    999.0    -0.5
 210   11:30   63.9    20    5.4   141     12.3   710.3    0.00     948    999.0    -0.5
 210   11:40   63.8    19    5.1   115     10.6   710.3    0.00     952    999.0    -0.6
 210   11:50   63.8    20    5.2   107     18.8   710.3    0.00     953    999.0    -0.6
 210   12:00   64.0    19    7.4   136     15.8   710.3    0.00     954    999.0    -0.6
 210   12:10   64.0    19    4.4   126     11.6   710.3    0.00     953    999.0    -0.6
 210   12:20   64.1    19    3.5    86      8.7   710.3    0.00     950    999.0    -0.6
 210   12:30   64.3    19    4.4   124     12.7   710.3    0.00     946    999.0    -0.6
 210   12:40   65.3    18    4.6   144     11.5   710.3    0.00     941    999.0    -0.6
 210   12:50   64.9    18    5.2   152     11.2   710.3    0.00     933    999.0    -0.5
 210   13:00   65.7    18    2.8    31      6.0   710.3    0.00     927    999.0    -0.6
 210   13:10   66.8    18    4.6    80     12.4   710.4    0.00     919    999.0    -0.6
 210   13:20   66.6    18    3.9   236     11.2   710.3    0.00     908    999.0    -0.7
 210   13:30   66.2    18    3.0   255      8.6   710.3    0.00     709    999.0    -0.7
 210   13:40   66.0    18    4.9   342     16.6   710.3    0.00     831    999.0    -0.6
 210   13:50   64.9    19    6.0    27     13.4   710.3    0.00     521    999.0    -0.7
 210   14:00   65.5    18    4.8    25      9.6   710.2    0.00     804    999.0    -0.5
 210   14:10   66.2    18    2.2   159      7.3   710.3    0.00     616    999.0    -0.6
 210   14:20   65.1    18    4.5   127     13.6   710.3    0.00     186    999.0    -0.7
 210   14:30   64.4    19    4.6    62     11.7   710.2    0.00     449    999.0    -0.5
 210   14:40   63.6    19    4.4   134     12.3   710.2    0.00     274    999.0    -0.6
 210   14:50   63.0    19    2.0   340      6.9   710.0    0.00     172    999.0    -0.6
 210   15:00   63.7    20    2.2   101      8.8   709.9    0.00     456    999.0    -0.5
 210   15:10   65.7    19    4.2    14      8.3   709.9    0.00     581    999.0    -0.6
 210   15:20   64.5    19    3.0   334      7.6   709.8    0.00     137    999.0    -0.7
 210   15:30   64.0    19    2.3   106      6.9   709.8    0.00     397    999.0    -0.6
 210   15:40   63.4    20    3.5   120      7.6   709.8    0.00     123    999.0    -0.6
 210   15:50   62.6    20    2.3   145      5.6   709.7    0.00     132    999.0    -0.6
 210   16:00   62.8    20    1.2   127      3.7   709.7    0.00     181    999.0    -0.6
 210   16:10   63.1    21    2.5   129      6.6   709.7    0.00      93    999.0    -0.6
 210   16:20   62.2    21    1.8    91      5.8   709.5    0.00      86    999.0    -0.6
 210   16:30   62.7    22    0.7    44      2.2   709.6    0.00     258    999.0    -0.6
 210   16:40   64.9    20    2.1    81      7.3   709.7    0.00     348    999.0    -0.7
 210   16:50   66.6    18    2.4    56      5.5   709.7    0.00     419    999.0    -0.7
 210   17:00   66.3    18    3.3   136      7.6   709.7    0.00     385    999.0    -0.8
 210   17:10   65.9    18    3.4   132      6.5   709.8    0.00     342    999.0    -0.7
 210   17:20   65.6    18    3.7   114      7.1   709.8    0.00     305    999.0    -0.7
 210   17:30   65.1    19    3.8   151      7.4   709.8    0.00     269    999.0    -0.6
 210   17:40   65.1    19    3.8   133      6.9   709.8    0.00     218    999.0    -0.7
 210   17:50   63.5    20    3.6   134      6.6   709.8    0.00      35    999.0    -0.6
 210   18:00   62.4    20    2.5   145      5.5   709.8    0.00      28    999.0    -0.5
 210   18:10   61.8    21    2.7   156      5.0   709.8    0.00      22    999.0    -0.5
 210   18:20   61.3    22    1.8   165      3.7   709.8    0.00      18    999.0    -0.5
 210   18:30   60.5    23    3.0   163      5.2   709.8    0.00      14    999.0    -0.6
 210   18:40   59.5    25    2.6   173      4.7   709.8    0.00      11    999.0    -0.6
 210   18:50   58.3    27    2.0   200      3.1   709.9    0.00       8    999.0    -0.8
 210   19:00   56.7    29    1.1   196      3.2   709.9    0.00       5    999.0    -0.7
 210   19:10   54.3    32    0.2    92      0.9   709.9    0.00       2    999.0    -0.8
 210   19:20   52.1    34    0.6   102      1.3   710.0    0.00       1    999.0    -0.8
 210   19:30   50.2    36    0.2   105      1.1   710.0    0.00       0    999.0    -0.8
 210   19:40   49.1    36    0.8   106      2.0   710.0    0.00       0    999.0    -0.7
 210   19:50   49.0    36    0.9   107      2.0   710.0    0.00       0    999.0    -0.8
 210   20:00   48.6    37    1.1   109      2.4   710.0    0.00       0    999.0    -0.6
 210   20:10   48.0    38    0.7   111      2.6   710.1    0.00       0    999.0    -0.7
 210   20:20   47.9    36    1.4   112      2.7   710.1    0.00       0    999.0    -0.7
 210   20:30   47.3    38    0.7   108      2.6   710.2    0.00       0    999.0    -0.8
 210   20:40   46.4    40    0.4   241      1.9   710.3    0.00       0    999.0    -0.8
 210   20:50   45.3    42    0.3   357      1.5   710.4    0.00       0    999.0    -0.6
 210   21:00   45.7    42    0.8   180      2.2   710.4    0.00       0    999.0    -0.8
 210   21:10   44.1    45    0.5   259      2.0   710.4    0.00       0    999.0    -0.6
 210   21:20   44.3    45    0.0   239      0.5   710.4    0.00       0    999.0    -0.6
 210   21:30   44.1    45    0.2   245      1.4   710.3    0.00       0    999.0    -0.6
 210   21:40   44.4    44    0.2   243      1.1   710.1    0.00       0    999.0    -0.6
 210   21:50   44.2    45    0.5   244      3.1   710.1    0.00       0    999.0    -0.7
 210   22:00   43.6    45    1.5   236      4.2   710.1    0.00       0    999.0    -0.7
 210   22:10   44.2    44    0.3   156      1.8   710.3    0.00       0    999.0    -0.7
 210   22:20   43.6    45    0.3   223      2.0   710.2    0.00       0    999.0    -0.7
 210   22:30   43.6    46    0.3   233      2.6   710.3    0.00       0    999.0    -0.7
 210   22:40   43.2    46    0.5   196      2.1   710.2    0.00       0    999.0    -0.7
 210   22:50   42.5    48    0.7   234      3.2   710.3    0.00       0    999.0    -0.7
 210   23:00   42.6    48    1.2   228      2.6   710.4    0.00       0    999.0    -0.7
 210   23:10   43.0    48    0.2   242      1.4   710.4    0.00       0    999.0    -0.6
 210   23:20   43.4    51    1.1   150      3.0   710.3    0.00       0    999.0    -0.7
 210   23:30   42.3    53    1.5   220      4.8   710.4    0.00       0    999.0    -0.7
 210   23:40   42.2    56    0.8   226      3.0   710.3    0.00       0    999.0    -0.8
 210   23:50   42.2    57    1.3   206      3.7   710.4    0.00       0    999.0    -0.7
 211    0:00   42.4    59    0.5   174      1.8   710.4    0.00       0    999.0    -0.7

Return to Crooked Creek Research Lab graphs page.


Western Regional Climate Center,wrcc@dri.edu